Time;durP1;ratioP1;P1;durP2;ratioP2;P2;SDS_P1;SDS_P2;PMS_P1;PMS_P2;Temp;Humidity;BMP_temperature;BMP_pressure;BME280_temperature;BME280_humidity;BME280_pressure;Samples;Min_cycle;Max_cycle;Signal;HPM_P1;HPM_P2
2023/09/03 00:02:16;;;;;;;;;;;;;;;20.61;nan;102280.63;5057848;28;19920;-84
2023/09/03 00:04:41;;;;;;;;;;;;;;;20.63;nan;102278.44;5057681;28;20284;-83
2023/09/03 00:07:07;;;;;;;;;;;;;;;20.62;nan;102273.28;5056001;28;20269;-83
2023/09/03 00:09:33;;;;;;;;;;;;;;;20.61;nan;102282.53;5057674;28;19924;-83
2023/09/03 00:11:58;;;;;;;;;;;;;;;20.59;nan;102282.81;5059844;28;19924;-83
2023/09/03 00:14:24;;;;;;;;;;;;;;;20.57;nan;102285.00;5054025;28;19916;-83
2023/09/03 00:16:49;;;;;;;;;;;;;;;20.57;nan;102285.00;5058883;28;19931;-84
2023/09/03 00:19:14;;;;;;;;;;;;;;;20.60;nan;102289.09;5058256;28;20562;-83
2023/09/03 00:21:39;;;;;;;;;;;;;;;20.61;nan;102286.06;5062244;28;19920;-83
2023/09/03 00:24:05;;;;;;;;;;;;;;;20.63;nan;102283.88;5060505;28;19927;-83
2023/09/03 00:26:30;;;;;;;;;;;;;;;20.64;nan;102284.69;5060171;28;19923;-83
2023/09/03 00:28:56;;;;;;;;;;;;;;;20.64;nan;102280.06;5056535;28;20050;-83
2023/09/03 00:31:23;;;;;;;;;;;;;;;20.62;nan;102279.53;5052137;28;20352;-83
2023/09/03 00:33:48;;;;;;;;;;;;;;;20.61;nan;102280.63;5059333;28;19938;-83
2023/09/03 00:36:14;;;;;;;;;;;;;;;20.57;nan;102279.56;5056156;28;20391;-83
2023/09/03 00:38:39;;;;;;;;;;;;;;;20.53;nan;102283.94;5057407;28;19917;-83
2023/09/03 00:41:05;;;;;;;;;;;;;;;20.50;nan;102289.94;5057978;28;20391;-83
2023/09/03 00:43:31;;;;;;;;;;;;;;;20.50;nan;102284.50;5059694;28;19925;-83
2023/09/03 00:45:58;;;;;;;;;;;;;;;20.51;nan;102283.41;5058527;28;19924;-83
2023/09/03 00:48:26;;;;;;;;;;;;;;;20.50;nan;102282.59;5055137;28;20327;-83
2023/09/03 00:50:52;;;;;;;;;;;;;;;20.51;nan;102283.41;5055968;28;20554;-84
2023/09/03 00:53:18;;;;;;;;;;;;;;;20.50;nan;102266.25;5056331;28;20012;-84
2023/09/03 00:55:44;;;;;;;;;;;;;;;20.52;nan;102282.31;5058884;28;20376;-83
2023/09/03 00:58:11;;;;;;;;;;;;;;;20.54;nan;102274.69;5059571;28;19931;-83
2023/09/03 01:00:37;;;;;;;;;;;;;;;20.54;nan;102277.41;5056708;28;20025;-83
2023/09/03 01:03:04;;;;;;;;;;;;;;;20.54;nan;102271.97;5058148;28;20547;-83
2023/09/03 01:05:29;;;;;;;;;;;;;;;20.58;nan;102267.56;5057488;28;20073;-83
2023/09/03 01:07:55;;;;;;;;;;;;;;;20.61;nan;102279.81;5058731;28;20092;-83
2023/09/03 01:10:24;;;;;;;;;;;;;;;20.60;nan;102278.19;5060520;28;20384;-83
2023/09/03 01:13:01;;;;;;;;;;;;;;;20.58;nan;102283.91;5057636;28;19925;-83
2023/09/03 01:15:29;;;;;;;;;;;;;;;20.55;nan;102287.19;5057945;28;19940;-83
2023/09/03 01:18:03;;;;;;;;;;;;;;;20.54;nan;102288.28;5057351;28;19917;-83
2023/09/03 01:20:31;;;;;;;;;;;;;;;20.59;nan;102280.09;5058800;28;19916;-83
2023/09/03 01:23:02;;;;;;;;;;;;;;;20.64;nan;102279.25;5056841;28;20007;-83
2023/09/03 01:25:31;;;;;;;;;;;;;;;20.69;nan;102271.09;5058407;28;19921;-83
2023/09/03 01:28:08;;;;;;;;;;;;;;;20.73;nan;102261.25;5055375;28;19924;-83
2023/09/03 01:30:34;;;;;;;;;;;;;;;20.76;nan;102261.50;5053716;28;20193;-83
2023/09/03 01:33:00;;;;;;;;;;;;;;;20.77;nan;102256.88;5059654;28;19916;-84
2023/09/03 01:35:27;;;;;;;;;;;;;;;20.76;nan;102258.78;5058732;28;19970;-83
2023/09/03 01:37:52;;;;;;;;;;;;;;;20.73;nan;102263.97;5058276;28;20168;-83
2023/09/03 01:40:18;;;;;;;;;;;;;;;20.67;nan;102271.38;5058668;28;20457;-83
2023/09/03 01:42:43;;;;;;;;;;;;;;;20.63;nan;102273.00;5059806;28;19928;-83
2023/09/03 01:45:08;;;;;;;;;;;;;;;20.65;nan;102276.28;5060194;28;22092;-83
2023/09/03 01:47:39;;;;;;;;;;;;;;;20.72;nan;102278.69;5060072;28;19924;-83
2023/09/03 01:50:23;;;;;;;;;;;;;;;20.78;nan;102275.66;5053758;28;19920;-83
2023/09/03 01:52:48;;;;;;;;;;;;;;;20.87;nan;102281.34;5054286;28;20019;-83
2023/09/03 01:55:16;;;;;;;;;;;;;;;20.94;nan;102281.03;5052633;28;20443;-84
2023/09/03 01:57:47;;;;;;;;;;;;;;;21.00;nan;102267.09;5061490;28;19916;-83
2023/09/03 02:00:13;;;;;;;;;;;;;;;21.06;nan;102273.34;5067310;28;19944;-83
2023/09/03 02:02:42;;;;;;;;;;;;;;;21.07;nan;102277.69;5058768;28;19928;-83
2023/09/03 02:05:07;;;;;;;;;;;;;;;21.08;nan;102271.16;5063128;28;20085;-83
2023/09/03 02:07:32;;;;;;;;;;;;;;;21.10;nan;102267.03;5061869;28;20348;-83
2023/09/03 02:09:58;;;;;;;;;;;;;;;21.13;nan;102258.28;5063270;28;20335;-83
2023/09/03 02:12:24;;;;;;;;;;;;;;;21.15;nan;102260.75;5061868;28;19921;-83
2023/09/03 02:14:50;;;;;;;;;;;;;;;21.09;nan;102261.88;5059989;28;19975;-83
2023/09/03 02:17:19;;;;;;;;;;;;;;;21.05;nan;102261.63;5061411;28;19916;-83
2023/09/03 02:19:46;;;;;;;;;;;;;;;21.05;nan;102263.53;5062757;28;19927;-83
2023/09/03 02:22:11;;;;;;;;;;;;;;;21.03;nan;102260.28;5061916;28;19920;-83
2023/09/03 02:24:37;;;;;;;;;;;;;;;21.02;nan;102264.94;5059345;28;19924;-83
2023/09/03 02:27:02;;;;;;;;;;;;;;;21.03;nan;102263.81;5065190;28;19928;-83
2023/09/03 02:29:27;;;;;;;;;;;;;;;21.00;nan;102271.72;5061978;28;20412;-83
2023/09/03 02:31:53;;;;;;;;;;;;;;;20.99;nan;102272.81;5060523;28;20009;-83
2023/09/03 02:34:18;;;;;;;;;;;;;;;20.98;nan;102265.75;5063752;28;19958;-83
2023/09/03 02:36:43;;;;;;;;;;;;;;;20.97;nan;102269.56;5058745;28;20418;-83
2023/09/03 02:39:08;;;;;;;;;;;;;;;20.95;nan;102267.13;5065089;28;20032;-83
2023/09/03 02:41:34;;;;;;;;;;;;;;;20.94;nan;102270.13;5061703;28;20388;-83
2023/09/03 02:44:01;;;;;;;;;;;;;;;20.93;nan;102265.78;5060348;28;20007;-83
2023/09/03 02:46:26;;;;;;;;;;;;;;;20.94;nan;102264.69;5058714;28;20559;-83
2023/09/03 02:48:52;;;;;;;;;;;;;;;20.96;nan;102265.22;5057617;28;19925;-83
2023/09/03 02:51:17;;;;;;;;;;;;;;;20.96;nan;102251.59;5060383;28;20423;-83
2023/09/03 02:53:43;;;;;;;;;;;;;;;20.95;nan;102250.78;5059478;28;20429;-83
2023/09/03 02:56:09;;;;;;;;;;;;;;;20.95;nan;102250.78;5064643;28;19917;-83
2023/09/03 02:58:35;;;;;;;;;;;;;;;20.92;nan;102251.34;5059068;28;20319;-83
2023/09/03 03:01:07;;;;;;;;;;;;;;;20.91;nan;102260.63;5057020;28;19935;-82
2023/09/03 03:03:32;;;;;;;;;;;;;;;20.89;nan;102270.16;5058037;28;19967;-83
2023/09/03 03:05:57;;;;;;;;;;;;;;;20.87;nan;102278.63;5062530;28;19952;-83
2023/09/03 03:08:23;;;;;;;;;;;;;;;20.85;nan;102267.19;5056090;28;19930;-83
2023/09/03 03:10:50;;;;;;;;;;;;;;;20.85;nan;102269.94;5059383;28;19920;-83
2023/09/03 03:13:15;;;;;;;;;;;;;;;20.84;nan;102268.28;5061505;28;19924;-83
2023/09/03 03:15:40;;;;;;;;;;;;;;;20.85;nan;102261.75;5062722;28;20366;-83
2023/09/03 03:18:06;;;;;;;;;;;;;;;20.86;nan;102270.72;5057866;28;19920;-83
2023/09/03 03:20:31;;;;;;;;;;;;;;;20.87;nan;102269.63;5054950;28;20935;-83
2023/09/03 03:22:56;;;;;;;;;;;;;;;20.86;nan;102254.38;5055754;28;19928;-84
2023/09/03 03:25:22;;;;;;;;;;;;;;;20.84;nan;102262.03;5060526;28;20466;-83
2023/09/03 03:27:47;;;;;;;;;;;;;;;20.83;nan;102260.41;5058923;28;19959;-83
2023/09/03 03:30:12;;;;;;;;;;;;;;;20.80;nan;102246.22;5059924;28;20602;-83
2023/09/03 03:32:37;;;;;;;;;;;;;;;20.81;nan;102247.84;5056210;28;20033;-83
2023/09/03 03:35:03;;;;;;;;;;;;;;;20.81;nan;102241.59;5061895;28;19920;-83
2023/09/03 03:37:28;;;;;;;;;;;;;;;20.78;nan;102264.75;5056566;28;20003;-83
2023/09/03 03:39:54;;;;;;;;;;;;;;;20.78;nan;102269.41;5059392;28;19928;-83
2023/09/03 03:42:19;;;;;;;;;;;;;;;20.76;nan;102277.84;5059202;28;19924;-83
2023/09/03 03:44:45;;;;;;;;;;;;;;;20.76;nan;102269.69;5055639;28;19928;-83
2023/09/03 03:47:11;;;;;;;;;;;;;;;20.79;nan;102262.84;5058462;28;19974;-84
2023/09/03 03:49:36;;;;;;;;;;;;;;;20.78;nan;102267.47;5059103;28;20342;-83
2023/09/03 03:52:01;;;;;;;;;;;;;;;20.75;nan;102270.78;5058189;28;19925;-83
2023/09/03 03:54:27;;;;;;;;;;;;;;;20.74;nan;102274.59;5059598;28;19925;-83
2023/09/03 03:56:52;;;;;;;;;;;;;;;20.67;nan;102281.44;5059285;28;19939;-83
2023/09/03 03:59:17;;;;;;;;;;;;;;;20.59;nan;102299.16;5056450;28;20071;-83
2023/09/03 04:01:44;;;;;;;;;;;;;;;20.58;nan;102307.59;5053361;28;19921;-83
2023/09/03 04:04:09;;;;;;;;;;;;;;;20.63;nan;102313.84;5060002;28;19927;-83
2023/09/03 04:06:34;;;;;;;;;;;;;;;20.67;nan;102316.84;5057790;28;21191;-83
2023/09/03 04:09:00;;;;;;;;;;;;;;;20.72;nan;102325.81;5057444;28;19917;-83
2023/09/03 04:11:25;;;;;;;;;;;;;;;20.77;nan;102325.78;5059663;28;19974;-83
2023/09/03 04:13:50;;;;;;;;;;;;;;;20.81;nan;102323.31;5060866;28;19920;-83
2023/09/03 04:16:17;;;;;;;;;;;;;;;20.85;nan;102316.22;5055140;28;19955;-83
2023/09/03 04:18:43;;;;;;;;;;;;;;;20.87;nan;102305.88;5056489;28;19916;-83
2023/09/03 04:21:09;;;;;;;;;;;;;;;20.90;nan;102304.50;5058916;28;19928;-83
2023/09/03 04:23:34;;;;;;;;;;;;;;;20.91;nan;102308.84;5058105;28;20379;-83
2023/09/03 04:26:00;;;;;;;;;;;;;;;20.91;nan;102306.13;5053883;28;19920;-83
2023/09/03 04:28:25;;;;;;;;;;;;;;;20.89;nan;102321.94;5056630;28;20487;-83
2023/09/03 04:30:59;;;;;;;;;;;;;;;20.86;nan;102319.78;5056098;28;19992;-83
2023/09/03 04:33:24;;;;;;;;;;;;;;;20.83;nan;102325.78;5056197;28;19967;-83
2023/09/03 04:35:57;;;;;;;;;;;;;;;20.80;nan;102336.13;5054043;28;20329;-83
2023/09/03 04:38:22;;;;;;;;;;;;;;;20.80;nan;102338.84;5056388;28;20760;-83
2023/09/03 04:40:47;;;;;;;;;;;;;;;20.83;nan;102333.97;5059816;28;19920;-83
2023/09/03 04:43:13;;;;;;;;;;;;;;;20.84;nan;102330.94;5060825;28;19985;-83
2023/09/03 04:45:44;;;;;;;;;;;;;;;20.88;nan;102331.19;5054776;28;19973;-84
2023/09/03 04:48:09;;;;;;;;;;;;;;;20.85;nan;102334.50;5059495;28;19927;-84
2023/09/03 04:50:35;;;;;;;;;;;;;;;20.80;nan;102327.13;5057775;28;20010;-86
2023/09/03 04:53:00;;;;;;;;;;;;;;;20.78;nan;102329.31;5057041;28;20047;-83
2023/09/03 04:55:25;;;;;;;;;;;;;;;20.77;nan;102327.69;5054579;28;20313;-84
2023/09/03 04:57:51;;;;;;;;;;;;;;;20.76;nan;102335.06;5059441;28;19920;-83
2023/09/03 05:00:16;;;;;;;;;;;;;;;20.76;nan;102331.50;5056448;28;20743;-83
2023/09/03 05:02:42;;;;;;;;;;;;;;;20.77;nan;102341.31;5052240;28;20533;-83
2023/09/03 05:05:07;;;;;;;;;;;;;;;20.77;nan;102336.69;5053509;28;20407;-83
2023/09/03 05:07:33;;;;;;;;;;;;;;;20.80;nan;102336.13;5058139;28;19916;-83
2023/09/03 05:09:58;;;;;;;;;;;;;;;20.87;nan;102340.47;5056652;28;19920;-83
2023/09/03 05:12:24;;;;;;;;;;;;;;;20.90;nan;102346.16;5056717;28;20393;-83
2023/09/03 05:14:49;;;;;;;;;;;;;;;20.91;nan;102339.63;5056992;28;19923;-83
2023/09/03 05:17:14;;;;;;;;;;;;;;;20.96;nan;102338.78;5056754;28;19967;-83
2023/09/03 05:19:40;;;;;;;;;;;;;;;21.02;nan;102338.50;5055808;28;20327;-83
2023/09/03 05:22:05;;;;;;;;;;;;;;;21.08;nan;102336.56;5053266;28;19924;-83
2023/09/03 05:24:31;;;;;;;;;;;;;;;21.13;nan;102341.97;5059003;28;20460;-83
2023/09/03 05:26:56;;;;;;;;;;;;;;;21.14;nan;102349.06;5052553;28;19920;-83
2023/09/03 05:29:21;;;;;;;;;;;;;;;21.18;nan;102361.00;5057483;28;20068;-83
2023/09/03 05:31:47;;;;;;;;;;;;;;;21.20;nan;102375.22;5049827;28;19946;-83
2023/09/03 05:34:12;;;;;;;;;;;;;;;21.23;nan;102384.72;5055700;28;20003;-83
2023/09/03 05:36:37;;;;;;;;;;;;;;;21.29;nan;102383.63;5056371;28;19924;-83
2023/09/03 05:39:03;;;;;;;;;;;;;;;21.36;nan;102390.41;5057629;28;19928;-83
2023/09/03 05:41:28;;;;;;;;;;;;;;;21.44;nan;102394.47;4972237;28;2367906;-83
2023/09/03 05:43:53;;;;;;;;;;;;;;;21.53;nan;102394.66;5056366;28;20026;-83
2023/09/03 05:46:19;;;;;;;;;;;;;;;21.61;nan;102413.19;5057482;28;20508;-83
2023/09/03 05:48:48;;;;;;;;;;;;;;;21.68;nan;102413.66;5060018;28;19924;-83
2023/09/03 05:51:13;;;;;;;;;;;;;;;21.70;nan;102412.28;5054309;28;19916;-84
2023/09/03 05:53:39;;;;;;;;;;;;;;;21.71;nan;102416.63;5056697;28;20521;-84
2023/09/03 05:56:08;;;;;;;;;;;;;;;21.73;nan;102410.94;5055618;28;20058;-83
2023/09/03 05:58:34;;;;;;;;;;;;;;;21.79;nan;102415.25;5055251;28;20368;-84
2023/09/03 06:01:02;;;;;;;;;;;;;;;21.86;nan;102404.00;5054406;28;20011;-83
2023/09/03 06:03:30;;;;;;;;;;;;;;;21.93;nan;102399.88;5055454;28;19924;-84
2023/09/03 06:05:55;;;;;;;;;;;;;;;22.00;nan;102399.53;5059598;28;19931;-83
2023/09/03 06:08:21;;;;;;;;;;;;;;;22.05;nan;102407.69;5060329;28;19921;-83
2023/09/03 06:10:46;;;;;;;;;;;;;;;22.10;nan;102413.16;5057145;28;20003;-83
2023/09/03 06:13:12;;;;;;;;;;;;;;;22.16;nan;102413.91;5059961;28;20293;-83
2023/09/03 06:15:37;;;;;;;;;;;;;;;22.19;nan;102414.16;5056071;28;19955;-83
2023/09/03 06:18:02;;;;;;;;;;;;;;;22.21;nan;102422.84;5058539;28;20375;-83
2023/09/03 06:20:28;;;;;;;;;;;;;;;22.24;nan;102426.94;5053585;28;19932;-83
2023/09/03 06:22:53;;;;;;;;;;;;;;;22.29;nan;102418.72;5057373;28;19990;-83
2023/09/03 06:25:18;;;;;;;;;;;;;;;22.29;nan;102410.53;5055988;28;19962;-83
2023/09/03 06:27:44;;;;;;;;;;;;;;;22.35;nan;102406.63;5053991;28;20191;-83
2023/09/03 06:30:09;;;;;;;;;;;;;;;22.41;nan;102416.41;5057679;28;20376;-83
2023/09/03 06:32:35;;;;;;;;;;;;;;;22.47;nan;102420.72;5052388;28;19962;-83
2023/09/03 06:35:01;;;;;;;;;;;;;;;22.54;nan;102432.13;5056994;28;20131;-84
2023/09/03 06:37:26;;;;;;;;;;;;;;;22.65;nan;102426.56;5056495;28;20277;-83
2023/09/03 06:39:51;;;;;;;;;;;;;;;22.76;nan;102433.53;5059093;28;20357;-83
2023/09/03 06:42:17;;;;;;;;;;;;;;;22.90;nan;102434.53;5059674;28;19956;-83
2023/09/03 06:44:42;;;;;;;;;;;;;;;23.05;nan;102453.47;5053829;28;19924;-83
2023/09/03 06:47:07;;;;;;;;;;;;;;;23.24;nan;102452.72;5063042;28;20394;-83
2023/09/03 06:49:33;;;;;;;;;;;;;;;23.36;nan;102470.34;5061915;28;20431;-83
2023/09/03 06:51:58;;;;;;;;;;;;;;;23.52;nan;102462.75;5059609;28;19920;-83
2023/09/03 06:54:24;;;;;;;;;;;;;;;23.72;nan;102470.72;5063183;28;19930;-83
2023/09/03 06:56:49;;;;;;;;;;;;;;;23.91;nan;102467.16;5063566;28;19916;-82
2023/09/03 06:59:15;;;;;;;;;;;;;;;24.01;nan;102461.53;5063454;28;20533;-83
2023/09/03 07:01:40;;;;;;;;;;;;;;;24.07;nan;102458.44;5057456;28;19946;-83
2023/09/03 07:04:05;;;;;;;;;;;;;;;24.14;nan;102463.50;5054112;28;20281;-83
2023/09/03 07:06:30;;;;;;;;;;;;;;;24.22;nan;102471.03;5055418;28;20187;-83
2023/09/03 07:08:56;;;;;;;;;;;;;;;24.34;nan;102474.16;5060125;28;20221;-83
2023/09/03 07:11:21;;;;;;;;;;;;;;;24.47;nan;102466.28;5061693;28;20122;-82
2023/09/03 07:13:46;;;;;;;;;;;;;;;24.54;nan;102478.47;5060499;28;20416;-83
2023/09/03 07:16:12;;;;;;;;;;;;;;;24.59;nan;102472.09;5057479;28;19935;-83
2023/09/03 07:18:37;;;;;;;;;;;;;;;24.57;nan;102477.88;5054281;28;19964;-83
2023/09/03 07:21:06;;;;;;;;;;;;;;;24.56;nan;102478.19;5053915;28;20429;-83
2023/09/03 07:23:31;;;;;;;;;;;;;;;24.51;nan;102481.00;5063842;28;20493;-83
2023/09/03 07:26:04;;;;;;;;;;;;;;;24.52;nan;102488.13;5057728;28;19920;-83
2023/09/03 07:28:30;;;;;;;;;;;;;;;24.49;nan;102486.78;5060809;28;19920;-82
2023/09/03 07:30:55;;;;;;;;;;;;;;;24.50;nan;102482.94;5057261;28;20304;-82
2023/09/03 07:33:20;;;;;;;;;;;;;;;24.55;nan;102482.03;5050773;28;19999;-82
2023/09/03 07:35:46;;;;;;;;;;;;;;;24.61;nan;102491.81;5058966;28;19920;-82
2023/09/03 07:38:11;;;;;;;;;;;;;;;24.66;nan;102494.44;5056084;28;19947;-81
2023/09/03 07:40:39;;;;;;;;;;;;;;;24.69;nan;102500.13;5058414;28;20030;-81
2023/09/03 07:43:05;;;;;;;;;;;;;;;24.76;nan;102498.91;5059960;28;19928;-82
2023/09/03 07:45:30;;;;;;;;;;;;;;;24.85;nan;102499.88;5060626;28;19920;-81
2023/09/03 07:47:55;;;;;;;;;;;;;;;24.96;nan;102502.13;5056464;28;19927;-82
2023/09/03 07:50:21;;;;;;;;;;;;;;;25.07;nan;102496.47;5056885;28;19927;-81
2023/09/03 07:52:46;;;;;;;;;;;;;;;25.17;nan;102508.06;5055618;28;20269;-82
2023/09/03 07:55:11;;;;;;;;;;;;;;;25.29;nan;102515.75;5055505;28;19999;-81
2023/09/03 07:57:37;;;;;;;;;;;;;;;25.45;nan;102521.75;5058399;28;19978;-82
2023/09/03 08:00:03;;;;;;;;;;;;;;;25.45;nan;102528.06;5051695;28;19924;-82
2023/09/03 08:02:29;;;;;;;;;;;;;;;25.48;nan;102534.84;5055548;28;19951;-81
2023/09/03 08:04:54;;;;;;;;;;;;;;;25.52;nan;102533.97;5056159;28;19931;-81
2023/09/03 08:07:19;;;;;;;;;;;;;;;25.63;nan;102541.97;5057318;28;20602;-81
2023/09/03 08:09:45;;;;;;;;;;;;;;;25.62;nan;102552.13;5061393;28;20418;-82
2023/09/03 08:12:10;;;;;;;;;;;;;;;25.51;nan;102557.03;5057618;28;20008;-83
2023/09/03 08:14:37;;;;;;;;;;;;;;;25.48;nan;102551.31;5059805;28;20476;-82
2023/09/03 08:17:02;;;;;;;;;;;;;;;25.47;nan;102536.78;5060577;28;19943;-82
2023/09/03 08:19:27;;;;;;;;;;;;;;;25.54;nan;102537.22;5061873;28;19924;-82
2023/09/03 08:21:53;;;;;;;;;;;;;;;25.69;nan;102535.31;5060169;28;20515;-83
2023/09/03 08:24:18;;;;;;;;;;;;;;;25.80;nan;102526.50;5059688;28;19920;-83
2023/09/03 08:26:43;;;;;;;;;;;;;;;25.93;nan;102537.78;5055860;28;19971;-82
2023/09/03 08:29:09;;;;;;;;;;;;;;;26.07;nan;102539.38;5060920;28;19917;-82
2023/09/03 08:31:34;;;;;;;;;;;;;;;26.15;nan;102530.38;5058637;28;20147;-83
2023/09/03 08:33:59;;;;;;;;;;;;;;;26.17;nan;102533.63;5058139;28;20011;-83
2023/09/03 08:36:24;;;;;;;;;;;;;;;26.15;nan;102530.38;5061049;28;19916;-83
2023/09/03 08:38:50;;;;;;;;;;;;;;;26.10;nan;102540.69;5058431;28;19924;-82
2023/09/03 08:41:18;;;;;;;;;;;;;;;26.13;nan;102540.88;5063532;28;19936;-83
2023/09/03 08:43:46;;;;;;;;;;;;;;;26.22;nan;102529.97;5061285;28;19939;-83
2023/09/03 08:46:14;;;;;;;;;;;;;;;26.20;nan;102530.25;5058365;28;19917;-83
2023/09/03 08:48:39;;;;;;;;;;;;;;;26.24;nan;102515.94;5061573;28;19920;-81
2023/09/03 08:51:04;;;;;;;;;;;;;;;26.22;nan;102515.44;5055837;28;20411;-82
2023/09/03 08:53:32;;;;;;;;;;;;;;;26.28;nan;102516.91;5062177;28;19941;-82
2023/09/03 08:55:58;;;;;;;;;;;;;;;26.32;nan;102517.91;5061932;28;19920;-82
2023/09/03 08:58:23;;;;;;;;;;;;;;;26.42;nan;102514.97;5057184;28;19932;-82
2023/09/03 09:00:48;;;;;;;;;;;;;;;26.52;nan;102520.19;5058834;28;19917;-82
2023/09/03 09:03:16;;;;;;;;;;;;;;;26.62;nan;102519.94;5061534;28;20019;-82
2023/09/03 09:05:42;;;;;;;;;;;;;;;26.77;nan;102519.53;5061966;28;19917;-81
2023/09/03 09:08:07;;;;;;;;;;;;;;;26.92;nan;102521.06;5060370;28;19962;-82
2023/09/03 09:10:33;;;;;;;;;;;;;;;27.02;nan;102520.81;5063558;28;20388;-83
2023/09/03 09:13:05;;;;;;;;;;;;;;;27.16;nan;102530.91;5062332;28;20053;-82
2023/09/03 09:15:30;;;;;;;;;;;;;;;27.28;nan;102537.41;5056290;28;19978;-82
2023/09/03 09:17:56;;;;;;;;;;;;;;;27.33;nan;102540.03;5060151;28;19916;-82
2023/09/03 09:20:22;;;;;;;;;;;;;;;27.30;nan;102535.19;5061083;28;20143;-82
2023/09/03 09:22:50;;;;;;;;;;;;;;;27.39;nan;102522.25;5059941;28;20337;-83
2023/09/03 09:25:18;;;;;;;;;;;;;;;27.53;nan;102529.56;5059278;28;19939;-82
2023/09/03 09:27:44;;;;;;;;;;;;;;;27.63;nan;102530.09;5060152;28;19927;-82
2023/09/03 09:30:10;;;;;;;;;;;;;;;27.71;nan;102534.00;5062463;28;19916;-82
2023/09/03 09:32:35;;;;;;;;;;;;;;;27.83;nan;102536.13;5058360;28;19917;-81
2023/09/03 09:35:00;;;;;;;;;;;;;;;27.98;nan;102538.41;5055471;28;19920;-81
2023/09/03 09:37:35;;;;;;;;;;;;;;;28.06;nan;102540.38;5058575;28;19966;-81
2023/09/03 09:40:01;;;;;;;;;;;;;;;28.20;nan;102545.72;5059094;28;20391;-82
2023/09/03 09:42:26;;;;;;;;;;;;;;;28.35;nan;102548.00;5057173;28;19929;-82
2023/09/03 09:44:51;;;;;;;;;;;;;;;28.38;nan;102546.56;5060544;28;19920;-81
2023/09/03 09:47:17;;;;;;;;;;;;;;;28.32;nan;102542.31;5070632;28;20333;-82
2023/09/03 09:49:43;;;;;;;;;;;;;;;28.34;nan;102534.53;5059235;28;19924;-82
2023/09/03 09:52:09;;;;;;;;;;;;;;;28.38;nan;102538.28;5061133;28;19923;-82
2023/09/03 09:54:43;;;;;;;;;;;;;;;28.37;nan;102534.72;5058390;28;19927;-85
2023/09/03 09:57:12;;;;;;;;;;;;;;;28.36;nan;102549.63;5058453;28;19928;-81
2023/09/03 09:59:39;;;;;;;;;;;;;;;28.30;nan;102545.41;5051874;28;19925;-82
2023/09/03 10:02:12;;;;;;;;;;;;;;;28.33;nan;102542.00;5059408;28;19920;-82
2023/09/03 10:04:42;;;;;;;;;;;;;;;28.22;nan;102546.22;5050307;28;19964;-82
2023/09/03 10:07:08;;;;;;;;;;;;;;;28.16;nan;102540.03;5056822;28;19916;-82
2023/09/03 10:09:35;;;;;;;;;;;;;;;28.22;nan;102540.69;5059211;28;19920;-82
2023/09/03 10:12:00;;;;;;;;;;;;;;;28.37;nan;102537.47;5060546;28;20505;-82
2023/09/03 10:14:25;;;;;;;;;;;;;;;28.59;nan;102542.78;5058405;28;19924;-82
2023/09/03 10:16:52;;;;;;;;;;;;;;;28.72;nan;102548.41;5060468;28;19924;-83
2023/09/03 10:19:19;;;;;;;;;;;;;;;28.83;nan;102546.94;5066251;28;19920;-83
2023/09/03 10:21:47;;;;;;;;;;;;;;;28.91;nan;102543.38;5062922;28;19931;-83
2023/09/03 10:24:15;;;;;;;;;;;;;;;28.90;nan;102541.75;5065415;28;19982;-83
2023/09/03 10:26:44;;;;;;;;;;;;;;;28.86;nan;102551.81;5062309;28;19993;-82
2023/09/03 10:29:11;;;;;;;;;;;;;;;28.79;nan;102552.31;5064418;28;19920;-82
2023/09/03 10:31:38;;;;;;;;;;;;;;;28.66;nan;102569.03;5065554;28;20411;-83
2023/09/03 10:34:10;;;;;;;;;;;;;;;28.66;nan;102569.84;5062324;28;19925;-83
2023/09/03 10:36:36;;;;;;;;;;;;;;;28.72;nan;102562.22;5064433;28;20017;-82
2023/09/03 10:39:25;;;;;;;;;;;;;;;28.80;nan;102569.66;5065299;28;19978;-82
2023/09/03 10:42:10;;;;;;;;;;;;;;;28.70;nan;102570.00;5065897;28;19931;-82
2023/09/03 10:44:40;;;;;;;;;;;;;;;28.72;nan;102567.72;5061290;28;19969;-82
2023/09/03 10:47:05;;;;;;;;;;;;;;;28.87;nan;102568.03;5063537;28;20424;-82
2023/09/03 10:49:40;;;;;;;;;;;;;;;28.93;nan;102576.97;5063068;28;19916;-82
2023/09/03 10:52:25;;;;;;;;;;;;;;;28.98;nan;102576.78;5064073;28;19947;-83
2023/09/03 10:55:08;;;;;;;;;;;;;;;28.95;nan;102577.47;5063597;28;19924;-83
2023/09/03 10:57:34;;;;;;;;;;;;;;;29.00;nan;102568.19;5065288;28;19920;-82
2023/09/03 11:00:05;;;;;;;;;;;;;;;29.14;nan;102574.31;5064854;28;20411;-84
2023/09/03 11:02:30;;;;;;;;;;;;;;;29.15;nan;102575.94;5057706;28;19924;-83
2023/09/03 11:05:08;;;;;;;;;;;;;;;29.17;nan;102577.22;5059172;28;19970;-82
2023/09/03 11:07:33;;;;;;;;;;;;;;;29.06;nan;102586.97;5057329;28;19920;-83
2023/09/03 11:10:18;;;;;;;;;;;;;;;29.12;nan;102580.16;5058726;28;20636;-82
2023/09/03 11:12:44;;;;;;;;;;;;;;;29.17;nan;102579.16;5062945;28;19921;-82
2023/09/03 11:15:10;;;;;;;;;;;;;;;29.28;nan;102569.38;5059270;28;20414;-82
2023/09/03 11:17:35;;;;;;;;;;;;;;;29.16;nan;102572.84;5059741;28;19920;-82
2023/09/03 11:20:01;;;;;;;;;;;;;;;29.03;nan;102571.09;5063702;28;19978;-82
2023/09/03 11:22:27;;;;;;;;;;;;;;;29.04;nan;102574.66;5063469;28;19978;-83
2023/09/03 11:24:52;;;;;;;;;;;;;;;29.09;nan;102575.31;5063912;28;19932;-82
2023/09/03 11:27:17;;;;;;;;;;;;;;;29.14;nan;102575.13;5059110;28;19916;-84
2023/09/03 11:29:43;;;;;;;;;;;;;;;29.28;nan;102579.63;5068204;28;19924;-84
2023/09/03 11:32:08;;;;;;;;;;;;;;;29.38;nan;102584.75;5061248;28;20106;-84
2023/09/03 11:34:33;;;;;;;;;;;;;;;29.47;nan;102583.63;5061122;28;20043;-84
2023/09/03 11:36:59;;;;;;;;;;;;;;;29.53;nan;102586.97;5065855;28;20376;-84
2023/09/03 11:39:24;;;;;;;;;;;;;;;29.61;nan;102588.88;5065107;28;19977;-84
2023/09/03 11:41:49;;;;;;;;;;;;;;;29.67;nan;102586.75;5061466;28;19927;-84
2023/09/03 11:44:15;;;;;;;;;;;;;;;29.73;nan;102585.41;5062512;28;19926;-82
2023/09/03 11:46:54;;;;;;;;;;;;;;;29.83;nan;102584.22;5060296;28;19920;-83
2023/09/03 11:49:23;;;;;;;;;;;;;;;29.89;nan;102577.34;5055912;28;20019;-82
2023/09/03 11:51:49;;;;;;;;;;;;;;;29.85;nan;102587.47;5058067;28;19931;-83
2023/09/03 11:54:23;;;;;;;;;;;;;;;29.83;nan;102581.47;5058858;28;20051;-82
2023/09/03 11:56:49;;;;;;;;;;;;;;;29.81;nan;102586.50;5060090;28;19926;-82
2023/09/03 11:59:14;;;;;;;;;;;;;;;29.80;nan;102585.69;5063139;28;19916;-82
2023/09/03 12:01:40;;;;;;;;;;;;;;;29.81;nan;102586.50;5066202;28;20399;-83
2023/09/03 12:04:06;;;;;;;;;;;;;;;29.84;nan;102594.13;5060432;28;19927;-82
2023/09/03 12:06:35;;;;;;;;;;;;;;;29.86;nan;102594.59;5061660;28;19924;-83
2023/09/03 12:09:00;;;;;;;;;;;;;;;29.79;nan;102595.09;5064078;28;19977;-82
2023/09/03 12:11:29;;;;;;;;;;;;;;;29.75;nan;102592.22;5061230;28;19916;-83
2023/09/03 12:13:54;;;;;;;;;;;;;;;29.70;nan;102589.66;5062503;28;19921;-83
2023/09/03 12:16:22;;;;;;;;;;;;;;;29.78;nan;102582.44;5061461;28;20564;-82
2023/09/03 12:18:54;;;;;;;;;;;;;;;29.90;nan;102596.34;5059258;28;19964;-82
2023/09/03 12:21:19;;;;;;;;;;;;;;;30.01;nan;102596.78;5058885;28;20066;-83
2023/09/03 12:23:45;;;;;;;;;;;;;;;30.03;nan;102588.94;5057186;28;20358;-82
2023/09/03 12:26:16;;;;;;;;;;;;;;;30.18;nan;102584.81;5060577;28;19920;-83
2023/09/03 12:28:42;;;;;;;;;;;;;;;30.37;nan;102585.94;5060185;28;19920;-83
2023/09/03 12:31:08;;;;;;;;;;;;;;;30.58;nan;102583.13;5059902;28;19931;-83
2023/09/03 12:33:33;;;;;;;;;;;;;;;30.62;nan;102588.81;5056588;28;20506;-83
2023/09/03 12:36:06;;;;;;;;;;;;;;;30.56;nan;102595.69;5066102;28;20011;-83
2023/09/03 12:38:45;;;;;;;;;;;;;;;30.49;nan;102596.22;5064736;28;19916;-83
2023/09/03 12:41:11;;;;;;;;;;;;;;;30.50;nan;102599.78;5062594;28;19920;-82
2023/09/03 12:43:36;;;;;;;;;;;;;;;30.37;nan;102598.97;5061733;28;20453;-83
2023/09/03 12:46:02;;;;;;;;;;;;;;;30.36;nan;102600.09;5063457;28;19928;-83
2023/09/03 12:48:28;;;;;;;;;;;;;;;30.30;nan;102599.47;5061942;28;20498;-83
2023/09/03 12:50:54;;;;;;;;;;;;;;;30.31;nan;102601.09;5064316;28;19931;-83
2023/09/03 12:53:19;;;;;;;;;;;;;;;30.31;nan;102603.06;5065052;28;20292;-83
2023/09/03 12:55:45;;;;;;;;;;;;;;;30.31;nan;102597.53;5063834;28;19960;-82